首页
METAR-TAF:

METAR-TAF

机场 :

科克赛德, 比利时

纬度: 51-05N, 经度: 002-39E, 海拔: 4米

当前天气观测

该预报发布于26分钟前的19:55 UTC
风速3节,风向西北
温度 19°C
湿度 78%
气压 1018 hPa
能見度: 8000
多云层高于12000英尺

METAR: EBFN 241955Z 32003KT 8000 BKN120 19/15 Q1018 BLU BLU TEMPO WHT

时间: 22:21 (20:21 UTC)

预报

该预报发布于4小时和40分钟前的15:41 UTC
预报有效从24日的 19点(UTC)到 25日的 07点(UTC)
风速7节,风向
能见度10公里或以上
少量云层高于4000英尺
多云层高于12000英尺
几率 30% :
短暂存在
从 24日的 19点(UTC)到 24日的 20点(UTC)
能見度: 7000
小阵雨
成为
从 24日的 23点(UTC)到 25日的 01点(UTC)
风速5节,风向东转东南
能见度10公里或以上
散云层高于14000英尺

TAF: EBFN 241541Z 2419/2507 01007KT 9999 FEW040 BKN120 PROB30 TEMPO 2419/2420 7000 -SHRA BECMG 2423/2501 12005KT 9999 SCT140

超过4000个机场的气象观测和天气预报(METAR&TAF报告)。

可查询的气象台以黄色和红色小点在地图上表示。

将鼠标移到小点上方,可查看气象台名称。

然后点击查看天气观测和预报。

如需切换地图:点击带黑十字的绿色按钮放大地图;点击带横线的绿色按钮缩小地图;或者点击绿色箭头查看邻近地区的地图。


METAR-TAF: